Time;durP1;ratioP1;P1;durP2;ratioP2;P2;SDS_P1;SDS_P2;PMS_P1;PMS_P2;Temp;Humidity;BMP_temperature;BMP_pressure;BME280_temperature;BME280_humidity;BME280_pressure;Samples;Min_cycle;Max_cycle;Signal;HPM_P1;HPM_P2
2023/09/10 00:00:03;;;;;;;31.45;26.63;;;18.30;99.90;;;;;;5034286;28;20041;-66
2023/09/10 00:02:30;;;;;;;35.03;28.60;;;18.30;99.90;;;;;;5033340;28;20498;-65
2023/09/10 00:04:57;;;;;;;33.85;28.52;;;18.30;99.90;;;;;;5034245;28;20045;-65
2023/09/10 00:07:25;;;;;;;32.65;28.95;;;18.30;99.90;;;;;;5034298;28;20050;-65
2023/09/10 00:09:52;;;;;;;37.03;30.65;;;18.30;99.90;;;;;;5015608;28;20061;-65
2023/09/10 00:12:19;;;;;;;32.50;27.75;;;18.20;99.90;;;;;;5016182;28;20056;-66
2023/09/10 00:14:45;;;;;;;32.75;27.25;;;18.20;99.90;;;;;;5034003;28;20169;-65
2023/09/10 00:17:12;;;;;;;29.17;25.58;;;18.20;99.90;;;;;;5033560;28;20049;-65
2023/09/10 00:19:39;;;;;;;30.23;26.95;;;18.20;99.90;;;;;;5016057;28;20049;-65
2023/09/10 00:22:06;;;;;;;31.52;26.27;;;18.20;99.90;;;;;;5033626;28;20049;-66
2023/09/10 00:24:34;;;;;;;32.05;27.27;;;18.20;99.90;;;;;;5015441;28;20053;-66
2023/09/10 00:27:02;;;;;;;30.33;26.23;;;18.20;99.90;;;;;;5033552;28;20049;-65
2023/09/10 00:29:29;;;;;;;30.13;25.70;;;18.20;99.90;;;;;;5033753;28;20183;-65
2023/09/10 00:31:56;;;;;;;30.05;26.65;;;18.20;99.90;;;;;;5033057;28;20409;-65
2023/09/10 00:34:23;;;;;;;29.85;26.23;;;18.20;99.90;;;;;;5015636;28;20468;-66
2023/09/10 00:36:50;;;;;;;31.23;27.20;;;18.10;99.90;;;;;;5015811;28;20406;-66
2023/09/10 00:39:17;;;;;;;32.67;25.80;;;18.10;99.90;;;;;;5033218;28;20041;-66
2023/09/10 00:41:45;;;;;;;29.30;26.10;;;18.10;99.90;;;;;;5033136;28;20056;-67
2023/09/10 00:44:12;;;;;;;30.50;25.95;;;18.10;99.90;;;;;;5014993;28;20492;-66
2023/09/10 00:46:40;;;;;;;31.90;27.55;;;18.10;99.90;;;;;;5033232;28;20053;-65
2023/09/10 00:49:07;;;;;;;32.65;26.10;;;18.10;99.90;;;;;;5015168;28;20053;-66
2023/09/10 00:51:36;;;;;;;30.42;26.15;;;18.10;99.90;;;;;;5014964;28;20111;-66
2023/09/10 00:54:03;;;;;;;32.10;26.63;;;18.10;99.90;;;;;;5032913;28;20055;-66
2023/09/10 00:56:30;;;;;;;30.48;27.17;;;18.10;99.90;;;;;;5033288;28;20041;-65
2023/09/10 00:58:58;;;;;;;29.60;24.40;;;18.10;99.90;;;;;;5032492;28;20046;-66
2023/09/10 01:01:25;;;;;;;25.83;22.73;;;18.10;99.90;;;;;;5015055;28;20123;-66
2023/09/10 01:03:52;;;;;;;25.90;23.10;;;18.00;99.90;;;;;;5032951;28;20049;-65
2023/09/10 01:06:21;;;;;;;28.20;25.08;;;18.00;99.90;;;;;;5014727;28;20049;-66
2023/09/10 01:08:48;;;;;;;27.10;24.20;;;18.00;99.90;;;;;;5013219;28;20056;-65
2023/09/10 01:11:24;;;;;;;27.65;23.35;;;17.90;99.90;;;;;;5014958;28;20053;-65
2023/09/10 01:14:09;;;;;;;26.10;23.23;;;17.90;99.90;;;;;;5013430;28;20038;-65
2023/09/10 01:16:44;;;;;;;29.50;25.65;;;17.90;99.90;;;;;;5032927;28;20274;-65
2023/09/10 01:19:27;;;;;;;29.27;25.95;;;17.90;99.90;;;;;;5014309;28;20045;-65
2023/09/10 01:22:01;;;;;;;27.60;24.60;;;17.80;99.90;;;;;;5033020;28;20049;-65
2023/09/10 01:24:41;;;;;;;28.80;24.95;;;17.80;99.90;;;;;;5014787;28;20041;-66
2023/09/10 01:27:08;;;;;;;27.33;22.97;;;17.80;99.90;;;;;;5014561;28;20057;-66
2023/09/10 01:29:35;;;;;;;25.33;22.15;;;17.80;99.90;;;;;;5014627;28;20401;-66
2023/09/10 01:32:09;;;;;;;26.00;22.02;;;17.80;99.90;;;;;;5015183;28;20060;-66
2023/09/10 01:34:42;;;;;;;24.80;21.55;;;17.80;99.90;;;;;;5014056;28;20072;-65
2023/09/10 01:37:17;;;;;;;23.17;20.67;;;17.80;99.90;;;;;;5032737;28;20050;-66
2023/09/10 01:39:49;;;;;;;23.83;20.80;;;17.80;99.90;;;;;;5032530;28;20053;-65
2023/09/10 01:42:17;;;;;;;28.58;22.58;;;17.80;99.90;;;;;;5013751;28;20049;-65
2023/09/10 01:44:46;;;;;;;27.05;22.95;;;17.80;99.90;;;;;;5014689;28;20049;-65
2023/09/10 01:47:13;;;;;;;23.67;21.17;;;17.80;99.90;;;;;;5032085;28;20084;-64
2023/09/10 01:49:40;;;;;;;24.92;21.92;;;17.70;99.90;;;;;;5014424;28;20099;-65
2023/09/10 01:52:07;;;;;;;26.45;22.33;;;17.80;99.90;;;;;;5014691;28;20049;-66
2023/09/10 01:54:34;;;;;;;27.80;22.85;;;17.70;99.90;;;;;;5031485;28;20098;-66
2023/09/10 01:57:02;;;;;;;27.05;23.48;;;17.70;99.90;;;;;;5012725;28;20049;-65
2023/09/10 01:59:29;;;;;;;25.95;23.15;;;17.70;99.90;;;;;;5031810;28;20041;-65
2023/09/10 02:01:56;;;;;;;27.08;23.80;;;17.70;99.90;;;;;;5013672;28;20103;-65
2023/09/10 02:04:23;;;;;;;24.45;21.80;;;17.70;99.90;;;;;;5030249;28;20049;-65
2023/09/10 02:06:50;;;;;;;24.20;21.60;;;17.70;99.90;;;;;;5032111;28;20099;-64
2023/09/10 02:09:17;;;;;;;25.58;22.77;;;17.60;99.90;;;;;;5029575;28;20045;-66
2023/09/10 02:11:44;;;;;;;26.25;22.73;;;17.70;99.90;;;;;;5014158;28;20099;-65
2023/09/10 02:14:12;;;;;;;25.33;21.70;;;17.60;99.90;;;;;;5014019;28;20061;-65
2023/09/10 02:16:39;;;;;;;22.77;20.23;;;17.70;99.90;;;;;;5013624;28;20046;-66
2023/09/10 02:19:07;;;;;;;21.40;18.98;;;17.60;99.90;;;;;;5031917;28;20049;-67
2023/09/10 02:21:33;;;;;;;23.17;19.77;;;17.60;99.90;;;;;;5029765;28;20120;-65
2023/09/10 02:24:01;;;;;;;21.42;18.73;;;17.60;99.90;;;;;;5013369;28;20050;-66
2023/09/10 02:26:28;;;;;;;33.78;24.98;;;17.70;99.90;;;;;;5012098;28;20045;-65
2023/09/10 02:28:55;;;;;;;25.00;21.80;;;17.60;99.90;;;;;;5013844;28;20050;-65
2023/09/10 02:31:24;;;;;;;28.33;24.48;;;17.70;99.90;;;;;;5031507;28;20413;-66
2023/09/10 02:33:51;;;;;;;26.08;22.13;;;17.60;99.90;;;;;;5029646;28;20037;-65
2023/09/10 02:36:18;;;;;;;26.95;21.20;;;17.60;99.90;;;;;;5031989;28;20428;-66
2023/09/10 02:38:45;;;;;;;27.75;23.02;;;17.60;99.90;;;;;;5031013;28;20049;-66
2023/09/10 02:41:12;;;;;;;28.77;23.65;;;17.60;99.90;;;;;;5013824;28;20050;-65
2023/09/10 02:43:38;;;;;;;26.38;21.98;;;17.60;99.90;;;;;;5011494;28;20119;-64
2023/09/10 02:46:05;;;;;;;26.73;22.90;;;17.60;99.90;;;;;;5013885;28;20386;-64
2023/09/10 02:48:34;;;;;;;27.92;23.20;;;17.50;99.90;;;;;;5031743;28;20052;-65
2023/09/10 02:51:01;;;;;;;25.92;21.90;;;17.50;99.90;;;;;;5031188;28;20068;-65
2023/09/10 02:53:27;;;;;;;26.92;24.02;;;17.50;99.90;;;;;;5014220;28;20399;-65
2023/09/10 02:56:01;;;;;;;28.67;24.48;;;17.50;99.90;;;;;;5013533;28;20042;-65
2023/09/10 02:58:28;;;;;;;27.92;24.17;;;17.50;99.90;;;;;;5013371;28;20413;-65
2023/09/10 03:00:54;;;;;;;31.00;25.08;;;17.40;99.90;;;;;;5013578;28;20104;-65
2023/09/10 03:03:22;;;;;;;30.65;24.60;;;17.40;99.90;;;;;;5031767;28;20404;-65
2023/09/10 03:05:50;;;;;;;31.75;26.33;;;17.40;99.90;;;;;;5031100;28;20050;-65
2023/09/10 03:08:17;;;;;;;30.45;26.20;;;17.40;99.90;;;;;;5029308;28;20095;-66
2023/09/10 03:10:44;;;;;;;31.95;24.15;;;17.40;99.90;;;;;;5033385;28;20064;-66
2023/09/10 03:13:11;;;;;;;31.95;25.90;;;17.40;99.90;;;;;;5016744;28;20099;-65
2023/09/10 03:15:38;;;;;;;30.08;26.05;;;17.40;99.90;;;;;;5016986;28;20046;-65
2023/09/10 03:18:05;;;;;;;28.52;25.33;;;17.40;99.90;;;;;;5035188;28;20053;-64
2023/09/10 03:20:32;;;;;;;36.05;29.75;;;17.40;99.90;;;;;;5016355;28;20437;-65
2023/09/10 03:23:02;;;;;;;35.45;29.50;;;17.30;99.90;;;;;;5016904;28;20053;-64
2023/09/10 03:25:28;;;;;;;33.70;27.35;;;17.40;99.90;;;;;;5034953;28;20045;-65
2023/09/10 03:27:55;;;;;;;38.03;30.02;;;17.30;99.90;;;;;;5034530;28;20124;-65
2023/09/10 03:30:22;;;;;;;35.33;29.92;;;17.30;99.90;;;;;;5017086;28;20049;-65
2023/09/10 03:32:51;;;;;;;43.70;34.88;;;17.30;99.90;;;;;;5034206;28;20056;-65
2023/09/10 03:35:18;;;;;;;42.88;34.17;;;17.20;99.90;;;;;;5016734;28;20449;-65
2023/09/10 03:37:45;;;;;;;47.85;35.53;;;17.20;99.90;;;;;;5016489;28;20053;-66
2023/09/10 03:40:14;;;;;;;46.63;34.85;;;17.20;99.90;;;;;;5033928;28;20064;-66
2023/09/10 03:42:41;;;;;;;47.45;36.97;;;17.10;99.90;;;;;;5034912;28;20049;-66
2023/09/10 03:45:08;;;;;;;46.08;36.97;;;17.10;99.90;;;;;;5032397;28;20041;-66
2023/09/10 03:47:37;;;;;;;50.28;40.17;;;17.10;99.90;;;;;;5016229;28;20076;-66
2023/09/10 03:50:05;;;;;;;44.97;34.70;;;17.10;99.90;;;;;;5016847;28;20061;-66
2023/09/10 03:52:31;;;;;;;47.40;38.60;;;17.10;99.90;;;;;;5016736;28;20451;-69
2023/09/10 03:54:58;;;;;;;46.13;36.90;;;17.10;99.90;;;;;;5015978;28;20092;-69
2023/09/10 03:57:27;;;;;;;48.92;39.75;;;17.10;99.90;;;;;;5032718;28;20041;-69
2023/09/10 03:59:54;;;;;;;55.00;42.10;;;17.10;99.90;;;;;;5034144;28;20705;-68
2023/09/10 04:02:21;;;;;;;51.08;41.35;;;17.10;99.90;;;;;;5018550;28;20069;-67
2023/09/10 04:04:48;;;;;;;50.35;40.47;;;17.10;99.90;;;;;;5016451;28;20056;-65
2023/09/10 04:07:15;;;;;;;53.45;40.38;;;17.10;99.90;;;;;;5034285;28;20053;-65
2023/09/10 04:09:42;;;;;;;58.95;42.92;;;17.10;99.90;;;;;;5015850;28;20049;-65
2023/09/10 04:12:09;;;;;;;52.65;41.72;;;17.10;99.90;;;;;;5034004;28;20448;-65
2023/09/10 04:14:37;;;;;;;50.92;41.00;;;17.10;99.90;;;;;;5034207;28;20401;-65
2023/09/10 04:17:04;;;;;;;51.92;39.53;;;17.10;99.90;;;;;;5015667;28;20409;-66
2023/09/10 04:19:31;;;;;;;45.03;36.33;;;17.10;99.90;;;;;;5016291;28;20049;-66
2023/09/10 04:21:58;;;;;;;50.03;39.95;;;17.10;99.90;;;;;;5032877;28;20045;-66
2023/09/10 04:24:25;;;;;;;49.05;40.03;;;17.10;99.90;;;;;;5034117;28;20366;-65
2023/09/10 04:26:52;;;;;;;46.65;38.35;;;17.10;99.90;;;;;;5015693;28;20053;-65
2023/09/10 04:29:20;;;;;;;52.65;41.25;;;17.10;99.90;;;;;;5033193;28;20049;-66
2023/09/10 04:31:48;;;;;;;51.95;41.08;;;17.10;99.90;;;;;;5033378;28;20133;-65
2023/09/10 04:34:15;;;;;;;49.53;39.63;;;17.10;99.90;;;;;;5015940;28;20405;-65
2023/09/10 04:36:42;;;;;;;59.15;45.75;;;17.00;99.90;;;;;;5012989;28;20045;-66
2023/09/10 04:39:09;;;;;;;59.58;46.15;;;17.00;99.90;;;;;;5015742;28;20387;-66
2023/09/10 04:41:36;;;;;;;59.50;44.22;;;17.00;99.90;;;;;;5033307;28;20072;-65
2023/09/10 04:44:03;;;;;;;58.42;44.90;;;17.00;99.90;;;;;;5015008;28;20060;-66
2023/09/10 04:46:30;;;;;;;55.78;45.13;;;17.00;99.90;;;;;;5033246;28;20049;-66
2023/09/10 04:48:59;;;;;;;55.90;44.47;;;17.00;99.90;;;;;;5033114;28;20045;-66
2023/09/10 04:51:26;;;;;;;63.95;46.95;;;17.00;99.90;;;;;;5014465;28;20056;-66
2023/09/10 04:53:53;;;;;;;61.08;46.08;;;17.00;99.90;;;;;;5030798;28;20060;-66
2023/09/10 04:56:19;;;;;;;61.58;47.42;;;17.00;99.90;;;;;;5014773;28;20045;-65
2023/09/10 04:58:46;;;;;;;63.08;48.72;;;17.00;99.90;;;;;;5014635;28;20053;-66
2023/09/10 05:01:14;;;;;;;39.25;31.80;;;17.00;99.90;;;;;;5032794;28;20057;-65
2023/09/10 05:03:42;;;;;;;47.13;38.20;;;17.00;99.90;;;;;;5032983;28;20041;-66
2023/09/10 05:06:10;;;;;;;46.65;37.00;;;17.00;99.90;;;;;;5032480;28;20535;-66
2023/09/10 05:08:38;;;;;;;55.85;44.85;;;17.00;99.90;;;;;;5015256;28;20041;-66
2023/09/10 05:11:05;;;;;;;52.40;40.65;;;17.00;99.90;;;;;;5012895;28;20060;-66
2023/09/10 05:13:32;;;;;;;63.45;46.83;;;17.00;99.90;;;;;;5032393;28;20103;-65
2023/09/10 05:15:58;;;;;;;59.15;46.35;;;17.00;99.90;;;;;;5015040;28;20091;-65
2023/09/10 05:18:26;;;;;;;58.85;44.83;;;17.10;99.90;;;;;;5032349;28;20052;-65
2023/09/10 05:20:53;;;;;;;58.60;45.75;;;17.10;99.90;;;;;;5032815;28;20049;-65
2023/09/10 05:23:22;;;;;;;53.45;42.33;;;17.10;99.90;;;;;;5015029;28;20132;-65
2023/09/10 05:25:49;;;;;;;43.72;35.47;;;17.10;99.90;;;;;;5014447;28;20049;-65
2023/09/10 05:28:16;;;;;;;38.42;30.05;;;17.20;99.90;;;;;;5015009;28;20049;-65
2023/09/10 05:30:43;;;;;;;36.03;31.20;;;17.10;99.90;;;;;;5014915;28;20442;-68
2023/09/10 05:33:10;;;;;;;36.88;29.58;;;17.10;99.90;;;;;;5031268;28;20049;-68
2023/09/10 05:35:37;;;;;;;49.88;40.05;;;17.20;99.90;;;;;;5032688;28;20409;-68
2023/09/10 05:38:05;;;;;;;42.95;34.25;;;17.20;99.90;;;;;;5032678;28;20072;-65
2023/09/10 05:40:36;;;;;;;43.60;34.53;;;17.30;99.90;;;;;;5014014;28;20061;-65
2023/09/10 05:43:04;;;;;;;44.92;35.58;;;17.30;99.90;;;;;;5014892;28;20455;-64
2023/09/10 05:45:33;;;;;;;48.97;37.53;;;17.30;99.90;;;;;;5030642;28;20041;-64
2023/09/10 05:48:00;;;;;;;51.05;41.20;;;17.40;99.90;;;;;;5031636;28;20144;-63
2023/09/10 05:50:27;;;;;;;47.72;39.50;;;17.50;99.90;;;;;;5014677;28;20057;-64
2023/09/10 05:52:55;;;;;;;47.03;39.50;;;17.60;99.90;;;;;;5014339;28;20054;-64
2023/09/10 05:55:24;;;;;;;46.53;37.03;;;17.70;99.90;;;;;;5013729;28;20056;-64
2023/09/10 05:57:53;;;;;;;47.15;38.50;;;17.80;99.90;;;;;;5014197;28;20053;-64
2023/09/10 06:00:20;;;;;;;53.15;41.50;;;17.90;99.90;;;;;;5014362;28;20129;-64
2023/09/10 06:02:48;;;;;;;50.88;37.47;;;18.00;99.90;;;;;;5013451;28;20497;-64
2023/09/10 06:05:15;;;;;;;44.25;36.28;;;18.10;99.90;;;;;;5014132;28;20052;-64
2023/09/10 06:07:42;;;;;;;47.08;36.22;;;18.10;99.90;;;;;;5031214;28;20049;-65
2023/09/10 06:10:10;;;;;;;39.40;33.58;;;18.20;99.90;;;;;;5005889;28;20057;-65
2023/09/10 06:12:37;;;;;;;33.65;30.00;;;18.30;99.90;;;;;;5011704;28;20041;-65
2023/09/10 06:15:07;;;;;;;36.95;29.08;;;18.40;99.90;;;;;;5011440;28;20545;-65
2023/09/10 06:17:35;;;;;;;36.42;29.55;;;18.50;99.90;;;;;;5031075;28;20183;-65
2023/09/10 06:20:03;;;;;;;42.03;32.50;;;18.60;99.90;;;;;;5030314;28;20049;-65
2023/09/10 06:22:30;;;;;;;37.55;31.98;;;18.80;99.90;;;;;;5011997;28;20053;-66
2023/09/10 06:24:57;;;;;;;38.47;32.00;;;19.00;99.90;;;;;;5009426;28;20100;-66
2023/09/10 06:27:24;;;;;;;42.67;32.63;;;19.30;99.90;;;;;;5011986;28;20103;-66
2023/09/10 06:29:51;;;;;;;39.85;32.28;;;19.50;99.90;;;;;;5030199;28;20052;-66
2023/09/10 06:32:19;;;;;;;37.05;29.90;;;19.90;99.90;;;;;;5010096;28;20053;-66
2023/09/10 06:34:46;;;;;;;37.25;31.35;;;20.40;99.90;;;;;;5012465;28;20072;-67
2023/09/10 06:37:13;;;;;;;34.38;30.10;;;20.80;99.90;;;;;;5026526;28;20045;-67
2023/09/10 06:39:40;;;;;;;35.80;30.30;;;20.90;99.90;;;;;;5012887;28;20053;-68
2023/09/10 06:42:09;;;;;;;35.00;28.33;;;20.90;99.90;;;;;;5030035;28;20095;-68
2023/09/10 06:44:38;;;;;;;33.63;29.73;;;20.90;99.90;;;;;;5014102;28;20060;-68
2023/09/10 06:47:05;;;;;;;31.67;25.55;;;21.10;99.90;;;;;;5016331;28;20042;-67
2023/09/10 06:49:33;;;;;;;30.85;26.25;;;21.30;99.90;;;;;;5016924;28;20056;-67
2023/09/10 06:52:00;;;;;;;24.30;21.67;;;21.90;99.90;;;;;;5032399;28;20053;-68
2023/09/10 06:54:27;;;;;;;33.33;25.73;;;22.40;99.90;;;;;;5034351;28;20413;-66
2023/09/10 06:56:54;;;;;;;31.23;26.17;;;22.90;99.90;;;;;;5015042;28;20091;-67
2023/09/10 06:59:21;;;;;;;31.98;23.73;;;23.50;99.90;;;;;;5034596;28;20063;-67
2023/09/10 07:01:48;;;;;;;29.00;24.58;;;24.10;99.90;;;;;;5033247;28;20065;-66
2023/09/10 07:04:20;;;;;;;31.08;24.00;;;24.60;99.90;;;;;;5015512;28;20049;-66
2023/09/10 07:06:50;;;;;;;27.40;22.63;;;25.00;99.90;;;;;;5034010;28;20115;-66
2023/09/10 07:09:17;;;;;;;;;;;25.40;99.90;;;;;;5015135;28;20054;-66
2023/09/10 07:11:44;;;;;;;26.13;22.35;;;25.60;99.90;;;;;;5016247;28;19921;-66
2023/09/10 07:14:11;;;;;;;24.05;20.65;;;26.10;99.90;;;;;;5014651;28;20048;-65
2023/09/10 07:16:38;;;;;;;25.92;21.77;;;26.40;99.90;;;;;;5016358;28;20057;-66
2023/09/10 07:19:05;;;;;;;25.70;21.10;;;26.80;99.90;;;;;;5014102;28;20045;-68
2023/09/10 07:21:32;;;;;;;25.55;19.65;;;27.50;99.90;;;;;;5015980;28;20058;-67
2023/09/10 07:24:02;;;;;;;24.95;20.38;;;27.70;99.90;;;;;;5031890;28;20053;-67
2023/09/10 07:26:29;;;;;;;22.38;20.02;;;28.10;99.90;;;;;;5015953;28;20111;-67
2023/09/10 07:28:56;;;;;;;22.92;19.52;;;28.40;99.90;;;;;;5031791;28;20057;-67
2023/09/10 07:31:22;;;;;;;22.90;19.63;;;28.70;99.90;;;;;;5016488;28;20049;-67
2023/09/10 07:33:49;;;;;;;21.95;19.60;;;28.70;99.90;;;;;;5030187;28;20049;-67
2023/09/10 07:36:16;;;;;;;25.70;18.83;;;29.20;99.90;;;;;;5033961;28;20092;-67
2023/09/10 07:38:43;;;;;;;21.77;18.88;;;29.40;99.90;;;;;;5013887;28;20061;-67
2023/09/10 07:41:11;;;;;;;22.65;18.13;;;29.60;99.90;;;;;;5032819;28;20046;-68
2023/09/10 07:43:38;;;;;;;20.08;17.38;;;30.00;99.90;;;;;;5031915;28;20045;-68
2023/09/10 07:46:05;;;;;;;21.48;17.58;;;30.10;99.90;;;;;;5033211;28;20045;-68
2023/09/10 07:48:32;;;;;;;17.75;15.68;;;30.60;99.90;;;;;;5032691;28;20057;-68
2023/09/10 07:51:00;;;;;;;19.98;16.90;;;30.70;99.10;;;;;;5033183;28;20061;-68
2023/09/10 07:53:27;;;;;;;20.73;16.67;;;31.10;98.50;;;;;;5011024;28;20065;-68
2023/09/10 07:55:54;;;;;;;17.77;15.98;;;31.30;98.00;;;;;;5026743;28;20049;-67
2023/09/10 07:58:22;;;;;;;17.52;15.73;;;31.30;97.20;;;;;;5015859;28;20045;-67
2023/09/10 08:00:50;;;;;;;14.93;13.43;;;31.80;97.10;;;;;;5031536;28;20057;-67
2023/09/10 08:03:17;;;;;;;16.38;14.63;;;31.50;96.20;;;;;;5014567;28;20061;-67
2023/09/10 08:05:44;;;;;;;18.73;14.32;;;31.70;95.90;;;;;;5013655;28;20049;-67
2023/09/10 08:08:11;;;;;;;15.25;13.60;;;32.00;95.60;;;;;;5014836;28;20068;-68
2023/09/10 08:10:37;;;;;;;15.73;14.07;;;32.00;95.20;;;;;;5031449;28;20137;-67
2023/09/10 08:13:05;;;;;;;16.27;14.68;;;32.40;94.90;;;;;;5033428;28;20049;-67
2023/09/10 08:15:33;;;;;;;15.15;13.18;;;32.60;94.30;;;;;;5013448;28;20485;-67
2023/09/10 08:18:00;;;;;;;15.30;13.65;;;33.00;93.70;;;;;;5015468;28;20053;-67
2023/09/10 08:20:27;;;;;;;14.43;12.95;;;33.30;93.30;;;;;;5032039;28;20053;-67
2023/09/10 08:22:54;;;;;;;16.58;13.18;;;33.30;92.90;;;;;;5032911;28;20053;-67
2023/09/10 08:25:21;;;;;;;12.75;11.55;;;33.40;92.80;;;;;;5014500;28;20061;-69
2023/09/10 08:27:48;;;;;;;13.20;11.88;;;33.40;92.70;;;;;;5014503;28;20061;-66
2023/09/10 08:30:15;;;;;;;14.13;11.60;;;33.70;92.60;;;;;;5028512;28;20053;-68
2023/09/10 08:32:45;;;;;;;12.65;11.25;;;33.80;92.00;;;;;;5032438;28;20493;-68
2023/09/10 08:35:13;;;;;;;13.35;10.23;;;34.10;91.30;;;;;;5011995;28;20489;-68
2023/09/10 08:37:40;;;;;;;11.95;10.63;;;34.30;91.30;;;;;;5031694;28;20045;-71
2023/09/10 08:40:08;;;;;;;11.63;10.13;;;34.40;90.70;;;;;;5013763;28;20539;-68
2023/09/10 08:42:43;;;;;;;13.57;9.57;;;35.00;90.30;;;;;;5012726;28;20453;-68
2023/09/10 08:45:12;;;;;;;9.77;8.77;;;35.10;89.00;;;;;;5014425;28;20049;-68
2023/09/10 08:47:41;;;;;;;10.38;8.07;;;35.00;87.80;;;;;;5031381;28;20497;-68
2023/09/10 08:50:12;;;;;;;9.40;8.50;;;35.10;86.50;;;;;;5030088;28;20516;-66
2023/09/10 08:52:40;;;;;;;12.23;9.18;;;35.40;86.10;;;;;;5031463;28;20405;-68
2023/09/10 08:55:08;;;;;;;7.18;6.40;;;35.40;86.00;;;;;;5027800;28;20140;-67
2023/09/10 08:57:38;;;;;;;10.57;6.93;;;35.50;84.50;;;;;;5040568;28;20042;-67
2023/09/10 09:00:09;;;;;;;9.35;6.90;;;36.00;83.30;;;;;;5030713;28;20052;-67
2023/09/10 09:02:35;;;;;;;11.07;6.45;;;36.00;82.30;;;;;;5011147;28;20144;-67
2023/09/10 09:05:03;;;;;;;7.60;6.78;;;36.00;82.80;;;;;;5012181;28;20045;-68
2023/09/10 09:07:35;;;;;;;21.83;6.18;;;36.20;83.10;;;;;;5028353;28;20049;-68
2023/09/10 09:10:04;;;;;;;8.25;6.60;;;36.30;82.50;;;;;;5014480;28;20409;-68
2023/09/10 09:12:35;;;;;;;8.07;6.30;;;36.40;82.30;;;;;;5011424;28;20389;-69
2023/09/10 09:15:03;;;;;;;9.18;6.35;;;36.20;82.90;;;;;;5013305;28;20049;-68
2023/09/10 09:17:30;;;;;;;8.38;7.57;;;36.20;82.90;;;;;;5013776;28;20045;-68
2023/09/10 09:20:00;;;;;;;10.68;7.35;;;36.30;82.70;;;;;;5030690;28;20057;-68
2023/09/10 09:22:31;;;;;;;12.18;7.32;;;36.30;82.90;;;;;;5032169;28;20057;-68
2023/09/10 09:25:00;;;;;;;8.13;6.85;;;36.70;82.90;;;;;;5030368;28;20127;-68
2023/09/10 09:27:29;;;;;;;8.15;6.50;;;37.00;82.50;;;;;;5014672;28;20045;-68
2023/09/10 09:29:57;;;;;;;9.00;7.05;;;37.00;82.20;;;;;;5029842;28;20049;-68
2023/09/10 09:32:24;;;;;;;9.68;7.25;;;36.80;81.90;;;;;;5031227;28;20068;-67
2023/09/10 09:34:51;;;;;;;7.55;6.10;;;36.80;82.30;;;;;;5029748;28;20064;-68
2023/09/10 09:37:20;;;;;;;9.18;7.30;;;37.40;81.70;;;;;;5032083;28;20057;-68
2023/09/10 09:39:51;;;;;;;7.60;6.47;;;37.50;80.90;;;;;;5029187;28;20049;-67
2023/09/10 09:42:22;;;;;;;10.70;6.38;;;37.30;79.00;;;;;;5012616;28;20057;-68
2023/09/10 09:44:50;;;;;;;11.75;6.65;;;37.10;80.20;;;;;;5009181;28;20144;-68
2023/09/10 09:47:17;;;;;;;8.75;6.18;;;37.60;80.30;;;;;;5013528;28;20056;-68
2023/09/10 09:49:45;;;;;;;9.63;6.05;;;37.40;79.80;;;;;;5013309;28;20049;-69
2023/09/10 09:52:13;;;;;;;8.50;5.93;;;37.70;79.40;;;;;;5013262;28;20056;-68
2023/09/10 09:54:40;;;;;;;6.57;5.30;;;38.00;79.10;;;;;;5012289;28;20084;-69
2023/09/10 09:57:08;;;;;;;7.95;5.43;;;38.00;78.90;;;;;;5010832;28;20042;-69
2023/09/10 09:59:36;;;;;;;5.88;4.85;;;37.80;78.80;;;;;;5031193;28;20050;-69
2023/09/10 10:02:04;;;;;;;;;;;38.10;78.70;;;;;;5029065;28;20099;-68
2023/09/10 10:04:33;;;;;;;8.13;4.65;;;38.10;78.20;;;;;;5030668;28;19929;-68
2023/09/10 10:07:00;;;;;;;9.45;5.25;;;38.60;78.10;;;;;;5011466;28;20044;-68
2023/09/10 10:09:35;;;;;;;6.25;5.13;;;38.50;78.10;;;;;;5013239;28;20497;-68
2023/09/10 10:12:03;;;;;;;6.95;4.95;;;39.00;77.80;;;;;;5010226;28;20045;-68
2023/09/10 10:14:32;;;;;;;7.43;5.07;;;39.00;77.30;;;;;;5012785;28;20061;-69
2023/09/10 10:17:01;;;;;;;5.82;5.00;;;39.00;77.20;;;;;;5011240;28;20300;-68
2023/09/10 10:19:30;;;;;;;6.13;5.35;;;39.00;76.80;;;;;;5016007;28;20053;-68
2023/09/10 10:21:57;;;;;;;;;;;39.00;76.70;;;;;;5016641;28;20057;-68
2023/09/10 10:24:24;;;;;;;8.13;5.28;;;38.30;76.90;;;;;;5019648;28;19928;-69
2023/09/10 10:26:52;;;;;;;6.80;4.80;;;39.10;77.10;;;;;;5034838;28;20057;-68
2023/09/10 10:29:20;;;;;;;11.30;4.93;;;39.00;76.90;;;;;;5019290;28;20490;-68
2023/09/10 10:31:52;;;;;;;6.70;5.40;;;39.30;76.70;;;;;;5017739;28;20107;-68
2023/09/10 10:34:23;;;;;;;8.82;5.57;;;39.20;76.20;;;;;;5016566;28;20422;-69
2023/09/10 10:37:00;;;;;;;7.10;4.50;;;38.90;75.50;;;;;;5017656;28;20041;-69
2023/09/10 10:39:36;;;;;;;5.80;4.63;;;39.10;76.80;;;;;;5034475;28;20072;-69
2023/09/10 10:42:06;;;;;;;6.72;4.57;;;39.20;76.30;;;;;;5035586;28;20428;-69
2023/09/10 10:44:35;;;;;;;10.93;5.20;;;39.00;75.90;;;;;;5035282;28;20099;-68
2023/09/10 10:47:11;;;;;;;5.65;4.10;;;39.70;75.20;;;;;;5015297;28;20124;-68
2023/09/10 10:49:46;;;;;;;5.63;4.65;;;39.60;75.30;;;;;;5035690;28;20523;-68
2023/09/10 10:52:15;;;;;;;6.75;4.75;;;39.90;75.10;;;;;;5037493;28;20427;-67
2023/09/10 10:54:44;;;;;;;17.13;5.13;;;39.50;74.60;;;;;;5016743;28;20053;-67
2023/09/10 10:57:11;;;;;;;6.60;5.07;;;39.60;74.90;;;;;;5036783;28;20099;-67
2023/09/10 10:59:39;;;;;;;7.75;5.30;;;39.40;75.20;;;;;;5017327;28;20111;-68
2023/09/10 11:02:11;;;;;;;8.10;5.35;;;39.50;74.90;;;;;;5018886;28;20451;-68
2023/09/10 11:04:53;;;;;;;9.00;4.90;;;39.10;75.30;;;;;;5035052;28;20053;-68
2023/09/10 11:07:22;;;;;;;8.60;5.20;;;39.10;75.60;;;;;;5034235;28;20490;-68
2023/09/10 11:09:49;;;;;;;11.23;5.43;;;39.50;75.10;;;;;;5017951;28;20046;-67
2023/09/10 11:12:16;;;;;;;8.63;4.43;;;39.20;75.30;;;;;;5034898;28;20048;-67
2023/09/10 11:15:12;;;;;;;6.60;4.82;;;39.20;75.10;;;;;;5019153;28;20056;-68
2023/09/10 11:17:39;;;;;;;7.40;4.57;;;39.60;74.20;;;;;;5017315;28;20050;-68
2023/09/10 11:20:09;;;;;;;9.20;5.10;;;39.50;75.30;;;;;;5019301;28;20394;-67
2023/09/10 11:23:11;;;;;;;7.30;4.45;;;39.50;74.80;;;;;;5017569;28;20049;-68
2023/09/10 11:25:41;;;;;;;8.98;4.35;;;39.30;74.00;;;;;;4979509;28;20050;-68
2023/09/10 11:28:39;;;;;;;6.45;4.30;;;39.50;74.70;;;;;;4990761;28;20048;-68
2023/09/10 11:31:34;;;;;;;10.50;4.35;;;39.30;73.90;;;;;;5001356;28;20060;-68
2023/09/10 11:34:35;;;;;;;7.00;3.83;;;39.20;74.90;;;;;;5033421;28;20052;-69
2023/09/10 11:37:05;;;;;;;7.78;4.28;;;39.50;75.00;;;;;;5032506;28;20085;-68
2023/09/10 11:39:34;;;;;;;7.10;4.00;;;39.70;74.40;;;;;;5032086;28;20524;-69
2023/09/10 11:42:03;;;;;;;6.63;4.75;;;39.40;74.30;;;;;;5014346;28;20485;-68
2023/09/10 11:44:30;;;;;;;8.65;4.30;;;38.90;75.00;;;;;;5014934;28;20046;-67
2023/09/10 11:46:57;;;;;;;6.05;3.38;;;39.20;74.50;;;;;;5015542;28;20508;-68
2023/09/10 11:49:25;;;;;;;8.15;3.70;;;39.30;75.00;;;;;;5014524;28;20045;-67
2023/09/10 11:51:53;;;;;;;6.90;4.18;;;39.70;75.20;;;;;;5034082;28;20093;-67
2023/09/10 11:54:22;;;;;;;;;;;40.30;74.00;;;;;;5031733;28;20049;-66
2023/09/10 11:56:51;;;;;;;12.10;4.20;;;40.20;73.30;;;;;;5015671;28;19929;-68
2023/09/10 11:59:19;;;;;;;10.30;4.45;;;40.00;73.60;;;;;;5014439;28;20461;-68
2023/09/10 12:01:46;;;;;;;9.37;4.27;;;39.90;73.40;;;;;;5015232;28;20586;-68
2023/09/10 12:04:16;;;;;;;8.90;4.10;;;39.70;73.90;;;;;;5029675;28;20307;-67
2023/09/10 12:06:44;;;;;;;10.18;3.90;;;40.20;73.30;;;;;;5015195;28;20175;-67
2023/09/10 12:09:13;;;;;;;6.72;3.83;;;40.30;73.10;;;;;;5031856;28;20050;-67
2023/09/10 12:11:42;;;;;;;11.30;3.97;;;40.40;73.10;;;;;;5015561;28;20409;-68
2023/09/10 12:14:09;;;;;;;8.63;4.07;;;40.30;72.70;;;;;;5030792;28;20061;-67
2023/09/10 12:16:37;;;;;;;12.98;4.55;;;39.90;73.00;;;;;;5033031;28;20049;-68
2023/09/10 12:19:04;;;;;;;6.68;3.60;;;40.10;73.10;;;;;;5012740;28;20060;-70
2023/09/10 12:21:31;;;;;;;13.80;4.20;;;40.10;72.80;;;;;;5013695;28;20052;-70
2023/09/10 12:23:58;;;;;;;9.75;4.10;;;40.20;73.10;;;;;;5012563;28;20513;-68
2023/09/10 12:26:25;;;;;;;10.18;4.13;;;40.20;72.70;;;;;;5032823;28;20107;-68
2023/09/10 12:28:53;;;;;;;9.15;4.18;;;40.40;72.30;;;;;;5013315;28;20453;-68
2023/09/10 12:31:21;;;;;;;9.13;4.50;;;40.30;72.40;;;;;;5032019;28;20048;-68
2023/09/10 12:33:48;;;;;;;11.88;4.25;;;40.20;72.50;;;;;;5014726;28;20052;-68
2023/09/10 12:36:15;;;;;;;9.07;4.65;;;40.10;72.80;;;;;;5012990;28;20501;-69
2023/09/10 12:38:42;;;;;;;10.88;4.60;;;40.40;72.20;;;;;;5032173;28;20049;-67